createdAt,value
2023-01-12T00:02:17.811Z,92.77
2023-01-12T00:04:46.764Z,92.80
2023-01-12T00:07:16.280Z,92.98
2023-01-12T00:09:44.971Z,93.21
2023-01-12T00:12:13.313Z,93.26
2023-01-12T00:14:41.238Z,93.67
2023-01-12T00:17:11.935Z,93.96
2023-01-12T00:19:40.387Z,94.28
2023-01-12T00:22:10.339Z,94.34
2023-01-12T00:24:48.038Z,94.13
2023-01-12T00:27:19.254Z,94.18
2023-01-12T00:29:47.594Z,94.38
2023-01-12T00:32:18.768Z,94.33
2023-01-12T00:34:46.658Z,94.36
2023-01-12T00:37:14.645Z,94.54
2023-01-12T00:39:53.155Z,94.46
2023-01-12T00:42:47.653Z,94.34
2023-01-12T00:45:21.521Z,94.57
2023-01-12T00:47:50.249Z,94.60
2023-01-12T00:50:19.664Z,94.05
2023-01-12T00:52:47.752Z,94.34
2023-01-12T00:55:15.695Z,94.37
2023-01-12T00:57:43.514Z,94.33
2023-01-12T01:00:11.962Z,94.46
2023-01-12T01:02:40.425Z,94.31
2023-01-12T01:05:09.813Z,94.28
2023-01-12T01:07:38.514Z,94.69
2023-01-12T01:10:07.267Z,94.50
2023-01-12T01:12:35.086Z,94.82
2023-01-12T01:15:03.637Z,94.57
2023-01-12T01:17:31.591Z,94.38
2023-01-12T01:19:59.403Z,94.80
2023-01-12T01:22:27.718Z,94.48
2023-01-12T01:24:55.626Z,94.53
2023-01-12T01:27:23.582Z,94.72
2023-01-12T01:29:51.389Z,94.65
2023-01-12T01:32:19.627Z,94.58
2023-01-12T01:34:48.376Z,94.81
2023-01-12T01:37:16.967Z,94.79
2023-01-12T01:39:44.758Z,94.79
2023-01-12T01:42:28.338Z,94.83
2023-01-12T01:44:59.576Z,94.88
2023-01-12T01:47:38.644Z,95.03
2023-01-12T01:50:17.164Z,95.25
2023-01-12T01:52:53.414Z,95.03
2023-01-12T01:55:29.766Z,95.34
2023-01-12T01:58:02.520Z,95.29
2023-01-12T02:00:31.049Z,95.27
2023-01-12T02:03:03.314Z,95.22
2023-01-12T02:05:32.876Z,95.08
2023-01-12T02:08:13.189Z,95.06
2023-01-12T02:10:41.351Z,94.89
2023-01-12T02:13:28.067Z,94.95
2023-01-12T02:16:23.583Z,94.96
2023-01-12T02:19:13.028Z,95.05
2023-01-12T02:21:58.216Z,95.10
2023-01-12T02:24:47.906Z,95.36
2023-01-12T02:27:26.537Z,95.15
2023-01-12T02:30:14.797Z,95.46
2023-01-12T02:32:52.048Z,95.16
2023-01-12T02:35:28.517Z,95.22
2023-01-12T02:38:12.475Z,95.10
2023-01-12T02:40:46.226Z,95.13
2023-01-12T02:43:29.587Z,95.13
2023-01-12T02:46:16.289Z,95.25
2023-01-12T02:49:14.481Z,95.37
2023-01-12T02:52:00.699Z,95.37
2023-01-12T02:54:30.274Z,95.45
2023-01-12T02:57:04.801Z,95.68
2023-01-12T02:59:35.670Z,95.56
2023-01-12T03:02:09.171Z,95.46
2023-01-12T03:04:38.073Z,95.40
2023-01-12T03:07:05.901Z,95.65
2023-01-12T03:09:41.920Z,95.68
2023-01-12T03:12:14.167Z,95.52
2023-01-12T03:14:46.956Z,95.89
2023-01-12T03:17:31.263Z,95.81
2023-01-12T03:27:41.450Z,95.93
2023-01-12T03:30:21.567Z,96.00
2023-01-12T03:32:50.997Z,95.86
2023-01-12T03:35:24.470Z,95.89
2023-01-12T03:38:00.404Z,96.33
2023-01-12T03:40:36.949Z,96.34
2023-01-12T03:43:20.172Z,96.58
2023-01-12T03:45:49.787Z,96.60
2023-01-12T03:48:38.630Z,96.76
2023-01-12T03:51:14.902Z,96.64
2023-01-12T03:53:45.289Z,96.72
2023-01-12T03:56:15.308Z,96.79
2023-01-12T03:58:44.319Z,96.81
2023-01-12T04:01:12.303Z,96.73
2023-01-12T04:03:40.378Z,97.11
2023-01-12T04:06:08.602Z,96.95
2023-01-12T04:08:36.993Z,97.25
2023-01-12T04:11:25.024Z,97.21
2023-01-12T04:13:52.944Z,97.51
2023-01-12T04:16:20.984Z,97.49
2023-01-12T04:18:48.933Z,97.39
2023-01-12T04:21:35.343Z,97.45
2023-01-12T04:24:03.287Z,97.38
2023-01-12T04:26:31.199Z,97.63
2023-01-12T04:28:58.994Z,97.95
2023-01-12T04:31:26.989Z,98.00
2023-01-12T04:33:54.892Z,98.13
2023-01-12T04:36:22.759Z,98.23
2023-01-12T04:38:50.535Z,98.34
2023-01-12T04:41:18.338Z,98.70
2023-01-12T04:43:46.992Z,98.53
2023-01-12T04:46:15.102Z,98.40
2023-01-12T04:48:44.147Z,98.35
2023-01-12T04:51:12.280Z,98.39
2023-01-12T04:53:40.236Z,98.69
2023-01-12T04:56:09.162Z,98.54
2023-01-12T04:58:37.040Z,98.64
2023-01-12T05:01:17.078Z,98.66
2023-01-12T05:03:45.620Z,98.99
2023-01-12T05:06:13.953Z,98.77
2023-01-12T05:09:00.754Z,98.78
2023-01-12T05:11:28.980Z,98.72
2023-01-12T05:13:57.568Z,98.82
2023-01-12T05:16:26.137Z,98.66
2023-01-12T05:18:54.511Z,98.82
2023-01-12T05:21:23.568Z,98.80
2023-01-12T05:23:53.199Z,98.90
2023-01-12T05:26:21.259Z,98.76
2023-01-12T05:28:53.121Z,98.77
2023-01-12T05:31:21.023Z,98.97
2023-01-12T05:33:49.055Z,98.91
2023-01-12T05:36:17.821Z,98.95
2023-01-12T05:38:45.616Z,99.20
2023-01-12T05:41:14.700Z,99.20
2023-01-12T05:43:52.796Z,98.92
2023-01-12T05:46:26.609Z,99.13
2023-01-12T05:48:56.763Z,99.12
2023-01-12T05:51:27.044Z,99.22
2023-01-12T05:53:55.388Z,99.13
2023-01-12T05:56:28.628Z,99.34
2023-01-12T05:58:59.056Z,99.17
2023-01-12T06:01:28.378Z,99.29
2023-01-12T06:03:59.047Z,99.23
2023-01-12T06:06:31.451Z,99.31
2023-01-12T06:09:01.471Z,99.47
2023-01-12T06:11:48.813Z,99.35
2023-01-12T06:14:17.094Z,99.31
2023-01-12T06:16:45.156Z,99.18
2023-01-12T06:19:13.299Z,99.23
2023-01-12T06:21:41.803Z,99.18
2023-01-12T06:24:09.979Z,99.23
2023-01-12T06:26:38.252Z,99.16
2023-01-12T06:29:07.269Z,99.37
2023-01-12T06:31:35.507Z,99.48
2023-01-12T06:34:03.425Z,99.64
2023-01-12T06:36:31.342Z,99.39
2023-01-12T06:38:59.263Z,99.65
2023-01-12T06:41:46.026Z,99.61
2023-01-12T06:44:13.898Z,99.75
2023-01-12T06:46:42.086Z,99.90
2023-01-12T06:49:10.799Z,99.81
2023-01-12T06:51:38.713Z,99.90
2023-01-12T06:54:06.886Z,99.94
2023-01-12T06:56:34.827Z,99.92
2023-01-12T06:59:02.719Z,99.80
2023-01-12T07:01:30.629Z,99.75
2023-01-12T07:03:58.552Z,99.66
2023-01-12T07:06:26.418Z,99.72
2023-01-12T07:08:54.294Z,99.97
2023-01-12T07:11:22.251Z,99.96
2023-01-12T07:13:50.089Z,99.97
2023-01-12T07:16:17.929Z,99.90
2023-01-12T07:18:47.294Z,99.86
2023-01-12T07:21:16.883Z,99.81
2023-01-12T07:23:44.790Z,99.62
2023-01-12T07:26:12.572Z,99.50
2023-01-12T07:28:41.219Z,99.55
2023-01-12T07:31:09.365Z,99.54
2023-01-12T07:33:38.656Z,99.55
2023-01-12T07:36:06.962Z,99.38
2023-01-12T07:38:35.098Z,99.17
2023-01-12T07:41:04.026Z,99.33
2023-01-12T07:43:33.771Z,99.19
2023-01-12T07:46:01.898Z,99.07
2023-01-12T07:48:30.863Z,99.15
2023-01-12T07:50:59.427Z,99.13
2023-01-12T07:53:27.256Z,99.34
2023-01-12T07:55:55.317Z,99.42
2023-01-12T07:58:23.211Z,99.29
2023-01-12T08:00:51.169Z,99.32
2023-01-12T08:03:19.065Z,99.43
2023-01-12T08:05:46.956Z,99.20
2023-01-12T08:08:14.804Z,99.14
2023-01-12T08:10:43.810Z,99.23
2023-01-12T08:13:11.920Z,99.35
2023-01-12T08:15:44.778Z,99.33
2023-01-12T08:18:28.130Z,99.32
2023-01-12T08:21:00.469Z,99.15
2023-01-12T08:23:34.770Z,98.88
2023-01-12T08:26:07.034Z,98.76
2023-01-12T08:28:40.285Z,98.92
2023-01-12T08:31:11.130Z,98.95
2023-01-12T08:33:39.035Z,98.64
2023-01-12T08:38:44.058Z,98.50
2023-01-12T08:41:30.268Z,98.37
2023-01-12T08:44:11.294Z,98.27
2023-01-12T08:46:45.636Z,97.80
2023-01-12T08:49:16.899Z,97.60
2023-01-12T08:51:46.104Z,97.22
2023-01-12T08:54:16.982Z,97.11
2023-01-12T08:56:45.587Z,97.18
2023-01-12T08:59:13.820Z,97.15
2023-01-12T09:01:42.957Z,97.28
2023-01-12T09:04:11.335Z,97.20
2023-01-12T09:06:42.425Z,97.30
2023-01-12T09:09:13.112Z,97.27
2023-01-12T09:11:42.692Z,97.41
2023-01-12T09:14:12.168Z,97.56
2023-01-12T09:16:40.888Z,97.75
2023-01-12T09:19:09.135Z,97.89
2023-01-12T09:21:39.931Z,98.00
2023-01-12T09:24:08.653Z,98.34
2023-01-12T09:26:41.993Z,98.39
2023-01-12T09:29:11.957Z,98.67
2023-01-12T09:31:43.737Z,98.69
2023-01-12T09:34:11.827Z,98.90
2023-01-12T09:36:40.935Z,98.90
2023-01-12T09:39:12.792Z,98.91
2023-01-12T09:42:09.555Z,98.61
2023-01-12T09:45:10.276Z,98.83
2023-01-12T09:47:53.763Z,98.80
2023-01-12T09:50:36.372Z,98.84
2023-01-12T09:53:31.380Z,98.87
2023-01-12T09:56:03.119Z,98.91
2023-01-12T09:59:32.878Z,98.76
2023-01-12T10:02:00.880Z,98.47
2023-01-12T10:04:29.359Z,98.29
2023-01-12T10:06:57.542Z,98.39
2023-01-12T10:09:26.841Z,98.25
2023-01-12T10:12:04.785Z,98.26
2023-01-12T10:14:32.573Z,98.36
2023-01-12T10:17:27.880Z,98.30
2023-01-12T10:20:13.624Z,98.30
2023-01-12T10:22:46.159Z,98.19
2023-01-12T10:25:31.548Z,98.00
2023-01-12T10:28:01.147Z,98.10
2023-01-12T10:30:39.462Z,98.15
2023-01-12T10:33:24.848Z,98.06
2023-01-12T10:36:03.144Z,97.90
2023-01-12T10:38:40.045Z,97.90
2023-01-12T10:41:18.014Z,97.64
2023-01-12T10:44:06.994Z,97.75
2023-01-12T10:46:36.052Z,97.72
2023-01-12T10:49:18.290Z,97.68
2023-01-12T10:51:57.495Z,97.42
2023-01-12T10:54:31.626Z,97.49
2023-01-12T10:57:17.046Z,97.26
2023-01-12T10:59:56.486Z,97.19
2023-01-12T11:02:43.398Z,97.19
2023-01-12T11:05:35.498Z,97.09
2023-01-12T11:08:05.279Z,96.90
2023-01-12T11:10:38.917Z,96.75
2023-01-12T11:13:23.765Z,96.60
2023-01-12T11:16:12.002Z,96.34
2023-01-12T11:19:07.985Z,96.13
2023-01-12T11:21:41.160Z,95.94
2023-01-12T11:24:33.080Z,95.63
2023-01-12T11:27:27.461Z,95.58
2023-01-12T11:30:08.118Z,95.49
2023-01-12T11:32:48.262Z,95.37
2023-01-12T11:35:25.225Z,95.32
2023-01-12T11:37:57.719Z,95.45
2023-01-12T11:40:34.739Z,95.48
2023-01-12T11:43:46.747Z,95.39
2023-01-12T11:46:30.087Z,94.89
2023-01-12T11:49:16.789Z,94.60
2023-01-12T11:51:49.545Z,94.80
2023-01-12T11:54:19.080Z,94.89
2023-01-12T11:56:59.258Z,94.85
2023-01-12T11:59:41.670Z,94.58
2023-01-12T12:02:46.260Z,94.51
2023-01-12T12:05:32.635Z,94.40
2023-01-12T12:08:22.557Z,94.11
2023-01-12T12:11:11.761Z,93.96
2023-01-12T12:13:55.057Z,93.29
2023-01-12T12:16:51.904Z,93.25
2023-01-12T12:19:30.427Z,93.15
2023-01-12T12:22:13.963Z,92.61
2023-01-12T12:25:05.717Z,92.26
2023-01-12T12:27:42.895Z,92.15
2023-01-12T12:30:48.459Z,92.24
2023-01-12T12:34:09.667Z,92.31
2023-01-12T12:36:50.231Z,92.38
2023-01-12T12:39:47.969Z,92.33
2023-01-12T12:42:43.814Z,92.46
2023-01-12T12:45:42.375Z,92.47
2023-01-12T12:48:34.986Z,92.06
2023-01-12T12:51:09.993Z,92.08
2023-01-12T12:53:42.150Z,92.10
2023-01-12T12:56:19.202Z,91.69
2023-01-12T12:58:49.158Z,91.02
2023-01-12T13:01:20.393Z,90.79
2023-01-12T13:03:52.626Z,90.50
2023-01-12T13:06:37.346Z,90.07
2023-01-12T13:09:11.183Z,90.09
2023-01-12T13:11:54.298Z,89.92
2023-01-12T13:14:40.457Z,89.76
2023-01-12T13:17:11.381Z,89.16
2023-01-12T13:20:13.562Z,88.69
2023-01-12T13:22:49.614Z,87.95
2023-01-12T13:25:19.522Z,87.96
2023-01-12T13:27:55.879Z,87.76
2023-01-12T13:30:26.813Z,87.40
2023-01-12T13:32:55.002Z,87.54
2023-01-12T13:35:23.699Z,87.70
2023-01-12T13:37:59.347Z,87.46
2023-01-12T13:40:30.641Z,87.46
2023-01-12T13:43:16.779Z,87.36
2023-01-12T13:46:37.364Z,87.21
2023-01-12T13:49:25.010Z,87.27
2023-01-12T13:52:04.460Z,87.34
2023-01-12T13:54:34.049Z,87.33
2023-01-12T13:57:06.488Z,87.31
2023-01-12T13:59:35.312Z,87.41
2023-01-12T14:02:04.166Z,87.48
2023-01-12T14:04:51.011Z,87.57
2023-01-12T14:07:37.851Z,87.54
2023-01-12T14:10:34.854Z,87.39
2023-01-12T14:13:30.620Z,87.39
2023-01-12T14:16:32.777Z,87.57
2023-01-12T14:19:01.271Z,87.67
2023-01-12T14:21:37.436Z,87.68
2023-01-12T14:24:25.185Z,87.51
2023-01-12T14:26:53.006Z,87.71
2023-01-12T14:29:21.520Z,87.71
2023-01-12T14:31:52.893Z,87.67
2023-01-12T14:34:26.324Z,87.58
2023-01-12T14:36:55.359Z,87.61
2023-01-12T14:39:26.976Z,87.75
2023-01-12T14:42:14.708Z,87.72
2023-01-12T14:45:11.159Z,87.92
2023-01-12T14:47:39.325Z,88.09
2023-01-12T14:50:13.448Z,88.17
2023-01-12T14:52:43.572Z,88.15
2023-01-12T14:55:14.698Z,88.23
2023-01-12T14:57:43.392Z,88.41
2023-01-12T15:00:43.466Z,88.30
2023-01-12T15:03:31.857Z,88.55
2023-01-12T15:06:05.060Z,88.63
2023-01-12T15:08:34.459Z,88.83
2023-01-12T15:11:10.165Z,88.81
2023-01-12T15:13:38.269Z,88.85
2023-01-12T15:16:25.599Z,88.95
2023-01-12T15:19:12.701Z,89.15
2023-01-12T15:22:02.615Z,89.33
2023-01-12T15:24:53.575Z,89.45
2023-01-12T15:27:23.999Z,89.57
2023-01-12T15:29:52.186Z,89.67
2023-01-12T15:32:34.893Z,89.86
2023-01-12T15:35:21.694Z,89.86
2023-01-12T15:37:53.527Z,89.88
2023-01-12T15:40:22.541Z,90.07
2023-01-12T15:42:53.251Z,90.15
2023-01-12T15:45:42.535Z,90.28
2023-01-12T15:48:11.261Z,90.52
2023-01-12T15:50:42.201Z,90.72
2023-01-12T15:53:19.281Z,91.13
2023-01-12T15:55:47.476Z,90.85
2023-01-12T15:58:17.063Z,91.21
2023-01-12T16:00:45.361Z,91.07
2023-01-12T16:03:38.217Z,91.29
2023-01-12T16:06:02.049Z,91.40
2023-01-12T16:08:29.940Z,91.48
2023-01-12T16:11:09.971Z,91.59
2023-01-12T16:13:38.321Z,91.36
2023-01-12T16:16:07.951Z,91.59
2023-01-12T16:18:35.794Z,91.70
2023-01-12T16:21:04.123Z,91.74
2023-01-12T16:23:32.993Z,91.64
2023-01-12T16:26:01.874Z,91.64
2023-01-12T16:28:29.663Z,91.91
2023-01-12T16:30:57.993Z,91.86
2023-01-12T16:33:25.779Z,91.94
2023-01-12T16:35:56.273Z,91.83
2023-01-12T16:38:24.360Z,91.88
2023-01-12T16:40:52.150Z,91.96
2023-01-12T16:52:45.588Z,92.00
2023-01-12T16:55:13.927Z,92.13
2023-01-12T16:57:42.473Z,92.29
2023-01-12T17:00:11.039Z,92.12
2023-01-12T17:02:39.750Z,92.38
2023-01-12T17:05:10.114Z,92.83
2023-01-12T17:07:38.004Z,92.78
2023-01-12T17:10:06.538Z,92.44
2023-01-12T17:12:34.988Z,92.56
2023-01-12T17:15:03.714Z,92.49
2023-01-12T17:17:31.819Z,92.74
2023-01-12T17:19:59.850Z,92.65
2023-01-12T17:22:28.960Z,92.75
2023-01-12T17:24:57.457Z,92.56
2023-01-12T17:27:25.427Z,92.63
2023-01-12T17:39:03.009Z,92.94
2023-01-12T17:41:49.355Z,93.23
2023-01-12T17:44:17.225Z,93.16
2023-01-12T17:46:46.089Z,93.45
2023-01-12T17:49:14.063Z,93.40
2023-01-12T17:51:42.038Z,93.41
2023-01-12T17:54:12.705Z,93.15
2023-01-12T17:56:41.057Z,93.41
2023-01-12T17:59:09.164Z,93.67
2023-01-12T18:01:37.683Z,93.40
2023-01-12T18:04:05.560Z,93.41
2023-01-12T18:06:33.688Z,93.39
2023-01-12T18:09:01.469Z,93.75
2023-01-12T18:11:31.288Z,93.76
2023-01-12T18:14:01.306Z,93.84
2023-01-12T18:16:29.800Z,93.83
2023-01-12T18:18:58.174Z,93.94
2023-01-12T18:21:27.246Z,93.93
2023-01-12T18:23:56.495Z,93.83
2023-01-12T18:26:27.221Z,94.21
2023-01-12T18:28:56.963Z,94.13
2023-01-12T18:31:32.026Z,94.19
2023-01-12T18:34:04.872Z,94.29
2023-01-12T18:36:36.688Z,94.09
2023-01-12T18:39:08.153Z,94.30
2023-01-12T18:41:58.035Z,94.17
2023-01-12T18:44:26.330Z,94.28
2023-01-12T18:47:14.094Z,94.39
2023-01-12T18:49:46.823Z,94.44
2023-01-12T18:52:37.171Z,94.41
2023-01-12T18:55:05.779Z,94.29
2023-01-12T18:57:34.781Z,94.31
2023-01-12T19:00:15.703Z,94.38
2023-01-12T19:02:44.344Z,94.33
2023-01-12T19:05:16.290Z,94.14
2023-01-12T19:08:04.061Z,94.24
2023-01-12T19:15:05.880Z,93.98
2023-01-12T19:17:34.629Z,93.97
2023-01-12T19:20:08.764Z,93.79
2023-01-12T19:22:55.127Z,93.61
2023-01-12T19:25:42.020Z,93.48
2023-01-12T19:28:35.583Z,93.09
2023-01-12T19:31:11.433Z,93.00
2023-01-12T19:33:39.703Z,92.99
2023-01-12T19:36:10.604Z,92.71
2023-01-12T19:38:38.803Z,92.61
2023-01-12T19:41:34.548Z,92.77
2023-01-12T19:48:37.583Z,92.59
2023-01-12T19:51:10.590Z,92.98
2023-01-12T19:53:40.282Z,93.02
2023-01-12T19:56:10.362Z,93.18
2023-01-12T19:58:39.545Z,93.23
2023-01-12T20:01:08.212Z,93.08
2023-01-12T20:03:36.342Z,92.98
2023-01-12T20:06:06.669Z,92.68
2023-01-12T20:08:34.583Z,92.32
2023-01-12T20:11:05.155Z,92.16
2023-01-12T20:13:34.665Z,92.13
2023-01-12T20:16:11.021Z,91.95
2023-01-12T20:18:39.033Z,91.85
2023-01-12T20:21:11.906Z,92.04
2023-01-12T20:23:39.816Z,92.04
2023-01-12T20:26:09.108Z,92.02
2023-01-12T20:28:37.012Z,92.26
2023-01-12T20:31:13.484Z,92.27
2023-01-12T20:33:41.746Z,92.24
2023-01-12T20:36:11.436Z,92.35
2023-01-12T20:43:30.072Z,92.30
2023-01-12T20:45:59.204Z,92.06
2023-01-12T20:48:27.241Z,91.88
2023-01-12T20:50:55.899Z,91.81
2023-01-12T20:53:26.980Z,91.65
2023-01-12T20:55:55.222Z,91.57
2023-01-12T20:58:23.686Z,91.44
2023-01-12T21:00:52.904Z,91.14
2023-01-12T21:03:22.636Z,91.11
2023-01-12T21:05:51.069Z,90.97
2023-01-12T21:08:19.066Z,90.67
2023-01-12T21:10:52.404Z,90.51
2023-01-12T21:13:21.313Z,90.39
2023-01-12T21:15:56.945Z,90.37
2023-01-12T21:18:24.894Z,90.36
2023-01-12T21:20:53.318Z,90.08
2023-01-12T21:23:22.743Z,90.05
2023-01-12T21:25:51.232Z,89.92
2023-01-12T21:28:19.484Z,89.93
2023-01-12T21:30:48.886Z,89.74
2023-01-12T21:33:17.992Z,89.74
2023-01-12T21:35:55.034Z,89.39
2023-01-12T21:38:24.505Z,89.14
2023-01-12T21:40:52.847Z,89.18
2023-01-12T21:43:21.965Z,89.06
2023-01-12T21:45:52.877Z,89.10
2023-01-12T21:48:23.674Z,89.20
2023-01-12T21:50:54.873Z,88.84
2023-01-12T21:53:25.876Z,88.79
2023-01-12T21:55:59.889Z,88.68
2023-01-12T21:58:32.898Z,88.64
2023-01-12T22:01:12.500Z,88.77
2023-01-12T22:03:42.928Z,88.78
2023-01-12T22:06:16.875Z,88.71
2023-01-12T22:08:48.858Z,88.65
2023-01-12T22:15:53.887Z,88.19
2023-01-12T22:22:55.924Z,88.23
2023-01-12T22:25:28.919Z,88.40
2023-01-12T22:27:59.885Z,88.23
2023-01-12T22:30:31.911Z,88.37
2023-01-12T22:33:03.901Z,88.30
2023-01-12T22:35:34.994Z,88.50
2023-01-12T22:38:06.357Z,88.30
2023-01-12T22:40:40.962Z,88.50
2023-01-12T22:43:26.911Z,88.30
2023-01-12T22:45:59.011Z,88.57
2023-01-12T22:56:01.768Z,88.80
2023-01-12T22:58:29.899Z,88.45
2023-01-12T23:01:09.586Z,88.58
2023-01-12T23:03:38.266Z,88.47
2023-01-12T23:06:10.752Z,88.39
2023-01-12T23:08:39.179Z,88.41
2023-01-12T23:11:18.803Z,88.41
2023-01-12T23:13:47.505Z,88.38
2023-01-12T23:16:17.491Z,88.32
2023-01-12T23:18:47.260Z,88.40
2023-01-12T23:21:17.974Z,88.40
2023-01-12T23:23:51.913Z,88.49
2023-01-12T23:26:27.627Z,88.33
2023-01-12T23:28:58.063Z,88.32
2023-01-12T23:31:32.746Z,88.12
2023-01-12T23:34:01.616Z,88.48
2023-01-12T23:36:30.625Z,88.37
2023-01-12T23:39:05.162Z,88.16
2023-01-12T23:41:36.465Z,88.04
2023-01-12T23:44:07.821Z,88.04
2023-01-12T23:46:39.333Z,88.11
2023-01-12T23:49:07.325Z,87.99
2023-01-12T23:51:36.906Z,87.87
2023-01-12T23:54:05.285Z,87.72
2023-01-12T23:56:34.816Z,87.96
2023-01-12T23:59:03.163Z,88.08
